Time;durP1;ratioP1;P1;durP2;ratioP2;P2;SDS_P1;SDS_P2;PMS_P1;PMS_P2;Temp;Humidity;BMP_temperature;BMP_pressure;BME280_temperature;BME280_humidity;BME280_pressure;Samples;Min_cycle;Max_cycle;Signal;HPM_P1;HPM_P2
2023/03/27 00:00:56;;;;;;;1.00;0.68;;;8.60;64.80;;;;;;5061625;28;20033;-62
2023/03/27 00:03:24;;;;;;;2.00;0.60;;;8.60;64.90;;;;;;5060854;28;20021;-62
2023/03/27 00:05:59;;;;;;;1.70;0.80;;;8.50;64.50;;;;;;5057629;28;20094;-61
2023/03/27 00:08:25;;;;;;;0.55;0.55;;;8.50;64.90;;;;;;5059131;28;20029;-63
2023/03/27 00:10:52;;;;;;;0.98;0.50;;;8.50;64.30;;;;;;5069773;28;20037;-63
2023/03/27 00:13:18;;;;;;;0.85;0.60;;;8.40;64.80;;;;;;5060416;28;20032;-63
2023/03/27 00:15:45;;;;;;;0.80;0.60;;;8.40;65.20;;;;;;5063424;28;20231;-63
2023/03/27 00:18:12;;;;;;;2.35;0.70;;;8.40;65.50;;;;;;5065878;28;20191;-61
2023/03/27 00:20:38;;;;;;;0.90;0.60;;;8.40;65.90;;;;;;5061225;28;20025;-64
2023/03/27 00:23:05;;;;;;;1.60;0.65;;;8.40;65.40;;;;;;5059666;28;20029;-62
2023/03/27 00:25:31;;;;;;;1.88;0.80;;;8.40;65.20;;;;;;5055598;28;20044;-64
2023/03/27 00:27:58;;;;;;;1.15;0.50;;;8.40;65.70;;;;;;5057195;28;20089;-62
2023/03/27 00:30:25;;;;;;;0.65;0.60;;;8.40;65.80;;;;;;5064056;28;20068;-62
2023/03/27 00:32:54;;;;;;;1.27;0.60;;;8.40;65.90;;;;;;5057699;28;20033;-62
2023/03/27 00:35:20;;;;;;;0.98;0.70;;;8.40;66.00;;;;;;5060093;28;20025;-63
2023/03/27 00:37:46;;;;;;;1.00;0.80;;;8.40;65.90;;;;;;5060292;28;20028;-61
2023/03/27 00:40:14;;;;;;;0.75;0.70;;;8.40;66.00;;;;;;5025396;28;20612;-63
2023/03/27 00:42:40;;;;;;;0.95;0.60;;;8.40;66.10;;;;;;5061200;28;20025;-61
2023/03/27 00:45:09;;;;;;;1.30;0.60;;;8.40;66.20;;;;;;5058541;28;20097;-63
2023/03/27 00:47:37;;;;;;;0.77;0.77;;;8.40;66.20;;;;;;5058179;28;20088;-63
2023/03/27 00:50:09;;;;;;;0.98;0.75;;;8.50;66.40;;;;;;5059854;28;20767;-62
2023/03/27 00:52:37;;;;;;;2.67;0.80;;;8.50;66.20;;;;;;5058646;28;20037;-63
2023/03/27 00:55:07;;;;;;;0.77;0.70;;;8.50;66.30;;;;;;5052201;28;20033;-61
2023/03/27 00:57:33;;;;;;;0.98;0.70;;;8.50;66.60;;;;;;5056962;28;20029;-64
2023/03/27 01:00:00;;;;;;;1.17;0.73;;;8.50;66.60;;;;;;5061688;28;20032;-63
2023/03/27 01:02:27;;;;;;;0.60;0.60;;;8.50;66.30;;;;;;5062613;28;20447;-62
2023/03/27 01:04:53;;;;;;;1.40;0.70;;;8.60;66.60;;;;;;5060760;28;20029;-61
2023/03/27 01:07:21;;;;;;;0.85;0.60;;;8.60;66.50;;;;;;5063898;28;20048;-62
2023/03/27 01:09:48;;;;;;;0.50;0.50;;;8.60;66.70;;;;;;5061522;28;20166;-62
2023/03/27 01:12:37;;;;;;;0.50;0.50;;;8.60;66.50;;;;;;5057856;28;20047;-63
2023/03/27 01:15:11;;;;;;;0.40;0.40;;;8.60;67.00;;;;;;5059009;28;20020;-62
2023/03/27 01:17:37;;;;;;;;;;;8.60;66.40;;;;;;5061965;28;20067;-63
2023/03/27 01:20:33;;;;;;;0.40;0.40;;;8.70;66.90;;;;;;5062448;28;19932;-61
2023/03/27 01:23:24;;;;;;;0.40;0.40;;;8.70;66.90;;;;;;5053992;28;20032;-61
2023/03/27 01:26:12;;;;;;;0.40;0.40;;;8.70;67.20;;;;;;5058988;28;20036;-61
2023/03/27 01:29:05;;;;;;;0.40;0.40;;;8.70;66.60;;;;;;5055447;28;20483;-62
2023/03/27 01:31:46;;;;;;;0.40;0.40;;;8.70;66.50;;;;;;5054999;28;20029;-62
2023/03/27 01:34:27;;;;;;;0.50;0.40;;;8.70;67.10;;;;;;5055252;28;20057;-62
2023/03/27 01:37:08;;;;;;;0.40;0.40;;;8.70;68.00;;;;;;5059183;28;20037;-62
2023/03/27 01:39:46;;;;;;;0.50;0.50;;;8.70;67.50;;;;;;5063037;28;20030;-62
2023/03/27 01:42:52;;;;;;;0.50;0.50;;;8.70;67.60;;;;;;5062529;28;20021;-63
2023/03/27 01:45:29;;;;;;;0.50;0.50;;;8.70;67.70;;;;;;5052221;28;20037;-62
2023/03/27 01:47:59;;;;;;;1.65;0.40;;;8.70;67.20;;;;;;5061463;28;20033;-63
2023/03/27 01:50:46;;;;;;;0.57;0.50;;;8.70;67.10;;;;;;5063038;28;20321;-61
2023/03/27 01:53:20;;;;;;;0.50;0.47;;;8.80;68.40;;;;;;5059792;28;20102;-62
2023/03/27 01:55:51;;;;;;;0.50;0.50;;;8.70;67.50;;;;;;5065387;28;20036;-61
2023/03/27 01:58:21;;;;;;;0.75;0.40;;;8.80;66.90;;;;;;5067202;28;20085;-62
2023/03/27 02:00:51;;;;;;;0.40;0.40;;;8.80;67.50;;;;;;5059885;28;20064;-62
2023/03/27 02:03:25;;;;;;;1.05;0.50;;;8.80;67.30;;;;;;5053367;28;20045;-64
2023/03/27 02:06:19;;;;;;;0.50;0.50;;;8.80;66.90;;;;;;5058065;28;20029;-63
2023/03/27 02:09:12;;;;;;;0.40;0.40;;;8.80;67.90;;;;;;5057242;28;20025;-62
2023/03/27 02:11:47;;;;;;;0.50;0.50;;;8.80;66.80;;;;;;5056268;28;20079;-61
2023/03/27 02:14:19;;;;;;;0.50;0.50;;;8.70;66.90;;;;;;5058696;28;20035;-62
2023/03/27 02:16:51;;;;;;;0.98;0.50;;;8.60;67.60;;;;;;5061460;28;20060;-61
2023/03/27 02:19:33;;;;;;;0.40;0.40;;;8.60;67.10;;;;;;5059407;28;20037;-61
2023/03/27 02:21:59;;;;;;;0.40;0.40;;;8.60;68.00;;;;;;5057325;28;20140;-60
2023/03/27 02:24:25;;;;;;;0.40;0.40;;;8.60;67.00;;;;;;5059320;28;20029;-61
2023/03/27 02:27:06;;;;;;;0.40;0.40;;;8.50;67.10;;;;;;5056804;28;20549;-63
2023/03/27 02:29:44;;;;;;;0.47;0.40;;;8.50;67.50;;;;;;5056187;28;20021;-62
2023/03/27 02:32:31;;;;;;;0.60;0.60;;;8.50;67.30;;;;;;5054304;28;20470;-62
2023/03/27 02:35:16;;;;;;;0.40;0.40;;;8.40;67.30;;;;;;5058776;28;20453;-62
2023/03/27 02:38:07;;;;;;;0.40;0.40;;;8.40;66.90;;;;;;5056292;28;20041;-62
2023/03/27 02:40:52;;;;;;;0.40;0.40;;;8.30;67.90;;;;;;5056559;28;20040;-61
2023/03/27 02:43:45;;;;;;;0.40;0.40;;;8.30;66.90;;;;;;5058487;28;20071;-62
2023/03/27 02:46:19;;;;;;;0.40;0.40;;;8.30;68.10;;;;;;5058885;28;20029;-62
2023/03/27 02:48:55;;;;;;;0.50;0.50;;;8.30;66.90;;;;;;5054106;28;20028;-61
2023/03/27 02:51:27;;;;;;;0.40;0.40;;;8.20;66.80;;;;;;5058519;28;20041;-61
2023/03/27 02:53:58;;;;;;;2.47;0.32;;;8.20;66.90;;;;;;5057213;28;20051;-61
2023/03/27 02:56:27;;;;;;;0.60;0.40;;;8.10;67.90;;;;;;5059680;28;20029;-63
2023/03/27 02:59:24;;;;;;;1.35;0.40;;;8.10;67.30;;;;;;5056796;28;20037;-62
2023/03/27 03:01:51;;;;;;;0.45;0.45;;;8.00;67.50;;;;;;5048008;28;20049;-63
2023/03/27 03:04:27;;;;;;;0.40;0.40;;;8.00;66.90;;;;;;5062831;28;20017;-61
2023/03/27 03:06:54;;;;;;;0.40;0.40;;;7.90;67.30;;;;;;5062327;28;20032;-62
2023/03/27 03:09:21;;;;;;;0.50;0.50;;;7.90;66.90;;;;;;5061796;28;20040;-61
2023/03/27 03:11:51;;;;;;;0.50;0.50;;;7.80;67.40;;;;;;5066244;28;20092;-61
2023/03/27 03:14:42;;;;;;;0.50;0.50;;;7.80;67.40;;;;;;5062648;28;20029;-61
2023/03/27 03:17:11;;;;;;;0.50;0.50;;;7.80;67.60;;;;;;5060523;28;20056;-61
2023/03/27 03:19:36;;;;;;;0.50;0.50;;;7.80;67.30;;;;;;5057403;28;20029;-61
2023/03/27 03:22:03;;;;;;;0.40;0.40;;;7.70;66.90;;;;;;5064799;28;20027;-63
2023/03/27 03:24:29;;;;;;;0.50;0.50;;;7.70;66.90;;;;;;5054376;28;20138;-62
2023/03/27 03:26:54;;;;;;;0.50;0.50;;;7.60;67.40;;;;;;5058873;28;20128;-62
2023/03/27 03:29:20;;;;;;;0.50;0.50;;;7.60;67.10;;;;;;5067343;28;20032;-62
2023/03/27 03:31:46;;;;;;;0.50;0.50;;;7.60;67.20;;;;;;5060985;28;20051;-63
2023/03/27 03:34:14;;;;;;;0.45;0.45;;;7.50;67.10;;;;;;5060769;28;20035;-61
2023/03/27 03:36:41;;;;;;;0.82;0.47;;;7.50;67.30;;;;;;5063147;28;20024;-62
2023/03/27 03:39:07;;;;;;;0.50;0.50;;;7.40;67.20;;;;;;5058858;28;20029;-62
2023/03/27 03:41:33;;;;;;;0.50;0.50;;;7.40;67.10;;;;;;4959499;28;20043;-62
2023/03/27 03:43:58;;;;;;;0.50;0.50;;;7.40;67.20;;;;;;5066064;28;20081;-62
2023/03/27 03:46:24;;;;;;;0.47;0.47;;;7.30;67.40;;;;;;5062009;28;20020;-61
2023/03/27 03:48:50;;;;;;;0.55;0.50;;;7.30;67.30;;;;;;5062691;28;20028;-61
2023/03/27 03:51:16;;;;;;;0.50;0.50;;;7.20;67.20;;;;;;5061360;28;20123;-61
2023/03/27 03:53:42;;;;;;;0.60;0.60;;;7.20;67.00;;;;;;5062378;28;20032;-61
2023/03/27 03:56:08;;;;;;;0.50;0.50;;;7.20;67.40;;;;;;5062784;28;20090;-62
2023/03/27 03:58:33;;;;;;;0.52;0.52;;;7.20;67.50;;;;;;5058665;28;20033;-63
2023/03/27 04:01:01;;;;;;;0.77;0.57;;;7.10;67.10;;;;;;5060572;28;20059;-61
2023/03/27 04:03:31;;;;;;;0.50;0.50;;;7.10;67.50;;;;;;5064210;28;20024;-61
2023/03/27 04:05:59;;;;;;;0.50;0.50;;;7.00;67.40;;;;;;5062690;28;20108;-61
2023/03/27 04:08:26;;;;;;;0.50;0.50;;;7.00;66.90;;;;;;5067222;28;20013;-60
2023/03/27 04:10:52;;;;;;;0.50;0.50;;;6.90;67.00;;;;;;5057217;28;20108;-61
2023/03/27 04:13:17;;;;;;;0.50;0.50;;;6.90;67.10;;;;;;5061600;28;20048;-61
2023/03/27 04:15:43;;;;;;;0.60;0.60;;;6.80;67.30;;;;;;5063369;28;20040;-61
2023/03/27 04:18:09;;;;;;;0.57;0.57;;;6.80;67.10;;;;;;5060787;28;20052;-61
2023/03/27 04:20:35;;;;;;;0.60;0.60;;;6.70;67.60;;;;;;5060433;28;20025;-64
2023/03/27 04:23:02;;;;;;;0.60;0.60;;;6.70;67.50;;;;;;5057064;28;20025;-61
2023/03/27 04:25:28;;;;;;;0.50;0.50;;;6.70;67.30;;;;;;5060704;28;20033;-61
2023/03/27 04:27:55;;;;;;;0.52;0.52;;;6.60;67.60;;;;;;5058142;28;20040;-62
2023/03/27 04:30:23;;;;;;;0.50;0.50;;;6.60;67.10;;;;;;5057118;28;20029;-61
2023/03/27 04:32:50;;;;;;;0.50;0.50;;;6.50;67.20;;;;;;5062493;28;20080;-62
2023/03/27 04:35:17;;;;;;;0.50;0.50;;;6.50;67.50;;;;;;5063589;28;20047;-60
2023/03/27 04:37:43;;;;;;;0.52;0.52;;;6.40;67.80;;;;;;5057905;28;20090;-61
2023/03/27 04:40:10;;;;;;;0.50;0.50;;;6.40;68.40;;;;;;5060135;28;20051;-62
2023/03/27 04:42:41;;;;;;;0.60;0.60;;;6.40;67.90;;;;;;5055855;28;20052;-62
2023/03/27 04:45:09;;;;;;;0.60;0.60;;;6.40;67.90;;;;;;5066467;28;20028;-61
2023/03/27 04:47:36;;;;;;;0.60;0.60;;;6.30;67.30;;;;;;5071412;28;20032;-63
2023/03/27 04:50:03;;;;;;;0.60;0.50;;;6.30;67.30;;;;;;5060124;28;20120;-62
2023/03/27 04:52:32;;;;;;;0.70;0.68;;;6.30;67.90;;;;;;5061224;28;20033;-61
2023/03/27 04:55:00;;;;;;;0.77;0.60;;;6.20;67.30;;;;;;5060236;28;20032;-64
2023/03/27 04:57:30;;;;;;;0.98;0.70;;;6.20;68.00;;;;;;5058221;28;20032;-62
2023/03/27 04:59:57;;;;;;;0.68;0.60;;;6.10;67.40;;;;;;5064653;28;20029;-61
2023/03/27 05:02:25;;;;;;;0.75;0.75;;;6.10;67.70;;;;;;5060009;28;20021;-61
2023/03/27 05:05:03;;;;;;;0.68;0.68;;;6.00;67.60;;;;;;5058739;28;20028;-62
2023/03/27 05:07:30;;;;;;;0.73;0.73;;;6.00;67.20;;;;;;5056468;28;20037;-61
2023/03/27 05:09:56;;;;;;;0.70;0.70;;;5.90;67.10;;;;;;5059369;28;20393;-63
2023/03/27 05:12:22;;;;;;;0.88;0.80;;;5.90;67.50;;;;;;5062011;28;20040;-62
2023/03/27 05:14:48;;;;;;;0.75;0.75;;;5.80;67.30;;;;;;5059622;28;20029;-61
2023/03/27 05:17:16;;;;;;;0.75;0.75;;;5.80;67.60;;;;;;5058784;28;20041;-62
2023/03/27 05:19:43;;;;;;;1.40;0.70;;;5.70;67.30;;;;;;5061692;28;20503;-62
2023/03/27 05:22:09;;;;;;;1.42;0.70;;;5.70;67.50;;;;;;5059860;28;20690;-61
2023/03/27 05:24:35;;;;;;;0.90;0.70;;;5.60;67.50;;;;;;5058151;28;20025;-61
2023/03/27 05:27:00;;;;;;;0.90;0.70;;;5.60;67.80;;;;;;5060127;28;20029;-61
2023/03/27 05:29:26;;;;;;;0.80;0.80;;;5.60;67.70;;;;;;5056433;28;20033;-61
2023/03/27 05:31:52;;;;;;;1.10;0.80;;;5.50;67.70;;;;;;5063127;28;20052;-61
2023/03/27 05:34:19;;;;;;;1.20;0.88;;;5.50;68.20;;;;;;5058282;28;20029;-62
2023/03/27 05:36:46;;;;;;;2.42;1.20;;;5.50;68.40;;;;;;5058138;28;20036;-61
2023/03/27 05:39:12;;;;;;;2.28;1.40;;;5.50;67.90;;;;;;5056938;28;20036;-62
2023/03/27 05:41:38;;;;;;;3.10;1.20;;;5.50;68.00;;;;;;5059113;28;20021;-60
2023/03/27 05:44:04;;;;;;;4.95;1.40;;;5.50;67.80;;;;;;5055306;28;20017;-62
2023/03/27 05:46:30;;;;;;;6.85;1.92;;;5.50;68.40;;;;;;5059842;28;20029;-61
2023/03/27 05:48:58;;;;;;;7.82;1.80;;;5.40;68.10;;;;;;5065519;28;20017;-62
2023/03/27 05:51:24;;;;;;;5.85;1.67;;;5.40;67.90;;;;;;5059540;28;20043;-61
2023/03/27 05:53:50;;;;;;;6.53;1.95;;;5.40;68.50;;;;;;5057847;28;20051;-61
2023/03/27 05:56:16;;;;;;;7.82;1.70;;;5.40;68.50;;;;;;5064532;28;20374;-62
2023/03/27 05:58:42;;;;;;;9.43;1.70;;;5.30;67.90;;;;;;5058737;28;20029;-61
2023/03/27 06:01:09;;;;;;;3.55;1.70;;;5.30;68.20;;;;;;5055302;28;20025;-61
2023/03/27 06:03:37;;;;;;;10.75;2.40;;;5.30;68.00;;;;;;5058432;28;20055;-65
2023/03/27 06:06:10;;;;;;;9.52;2.50;;;5.30;68.30;;;;;;5063507;28;20060;-63
2023/03/27 06:08:37;;;;;;;4.63;1.75;;;5.30;68.90;;;;;;5058715;28;20044;-64
2023/03/27 06:11:14;;;;;;;7.07;2.38;;;5.20;68.40;;;;;;5060762;28;20040;-63
2023/03/27 06:13:39;;;;;;;6.93;2.28;;;5.20;68.50;;;;;;5049070;28;20027;-64
2023/03/27 06:16:06;;;;;;;10.10;2.22;;;5.20;68.10;;;;;;5057804;28;20052;-64
2023/03/27 06:18:32;;;;;;;8.63;2.22;;;5.10;68.20;;;;;;5058144;28;20127;-64
2023/03/27 06:20:58;;;;;;;11.50;2.63;;;5.20;68.20;;;;;;5056090;28;20032;-64
2023/03/27 06:23:24;;;;;;;13.50;2.40;;;5.10;68.10;;;;;;5057119;28;20021;-64
2023/03/27 06:25:51;;;;;;;8.65;2.28;;;5.10;69.10;;;;;;5058792;28;20090;-63
2023/03/27 06:28:19;;;;;;;7.57;2.40;;;5.10;68.80;;;;;;5059654;28;20039;-64
2023/03/27 06:30:46;;;;;;;12.80;3.05;;;5.10;68.50;;;;;;5060884;28;20025;-64
2023/03/27 06:33:13;;;;;;;7.70;2.67;;;5.10;68.30;;;;;;5058611;28;20036;-64
2023/03/27 06:35:40;;;;;;;8.13;2.53;;;5.10;68.20;;;;;;5059442;28;20047;-64
2023/03/27 06:38:07;;;;;;;12.95;2.70;;;5.10;68.20;;;;;;5059369;28;20530;-64
2023/03/27 06:40:34;;;;;;;12.02;2.88;;;5.10;68.20;;;;;;5060795;28;20017;-65
2023/03/27 06:43:02;;;;;;;11.02;2.40;;;5.10;68.40;;;;;;5057994;28;20111;-63
2023/03/27 06:45:37;;;;;;;10.27;2.53;;;5.00;68.10;;;;;;5055334;28;20025;-64
2023/03/27 06:48:04;;;;;;;12.45;2.55;;;5.00;68.70;;;;;;5058939;28;20029;-65
2023/03/27 06:50:31;;;;;;;8.82;2.83;;;5.00;67.90;;;;;;5056963;28;20078;-64
2023/03/27 06:52:58;;;;;;;9.77;2.45;;;5.00;68.00;;;;;;5062485;28;20037;-64
2023/03/27 06:55:27;;;;;;;8.68;2.20;;;4.90;68.30;;;;;;5055970;28;20052;-64
2023/03/27 06:57:55;;;;;;;13.30;2.95;;;5.00;68.30;;;;;;5059677;28;20021;-64
2023/03/27 07:00:25;;;;;;;17.45;2.65;;;4.90;68.10;;;;;;5061741;28;20384;-64
2023/03/27 07:02:55;;;;;;;4.97;2.03;;;5.00;68.50;;;;;;5061835;28;20032;-64
2023/03/27 07:05:22;;;;;;;6.85;2.28;;;5.00;68.30;;;;;;5056354;28;20111;-65
2023/03/27 07:07:48;;;;;;;12.43;2.42;;;5.00;68.10;;;;;;5056852;28;20024;-64
2023/03/27 07:10:14;;;;;;;8.98;2.80;;;5.00;68.10;;;;;;5056041;28;20025;-63
2023/03/27 07:12:47;;;;;;;7.13;2.33;;;5.00;68.00;;;;;;5053938;28;20420;-63
2023/03/27 07:15:13;;;;;;;11.07;2.38;;;5.00;68.10;;;;;;5053932;28;20021;-64
2023/03/27 07:17:41;;;;;;;17.02;3.03;;;5.10;68.30;;;;;;5055956;28;20102;-63
2023/03/27 07:20:09;;;;;;;9.65;2.65;;;5.00;67.80;;;;;;5057254;28;20039;-65
2023/03/27 07:22:35;;;;;;;14.07;2.90;;;5.00;67.80;;;;;;5059102;28;20074;-63
2023/03/27 07:25:03;;;;;;;8.80;2.33;;;5.00;67.80;;;;;;5055994;28;20508;-64
2023/03/27 07:27:29;;;;;;;12.05;2.20;;;5.00;67.70;;;;;;5054520;28;20021;-64
2023/03/27 07:29:57;;;;;;;11.95;2.80;;;5.10;68.00;;;;;;5054096;28;20029;-64
2023/03/27 07:32:23;;;;;;;10.13;3.33;;;5.10;67.80;;;;;;5056233;28;20098;-63
2023/03/27 07:34:49;;;;;;;12.25;2.35;;;5.10;67.60;;;;;;5063550;28;20033;-64
2023/03/27 07:37:14;;;;;;;14.68;2.63;;;5.10;67.60;;;;;;5063532;28;20031;-64
2023/03/27 07:39:41;;;;;;;12.02;2.85;;;5.00;67.70;;;;;;5057198;28;20021;-63
2023/03/27 07:42:07;;;;;;;10.20;2.42;;;5.10;68.00;;;;;;5058647;28;20373;-63
2023/03/27 07:44:33;;;;;;;11.73;2.60;;;5.10;67.80;;;;;;5053239;28;20041;-64
2023/03/27 07:46:59;;;;;;;14.93;3.30;;;5.20;68.10;;;;;;5057832;28;20068;-64
2023/03/27 07:49:25;;;;;;;13.90;2.88;;;5.20;68.10;;;;;;5056947;28;20017;-64
2023/03/27 07:51:52;;;;;;;9.23;2.88;;;5.20;67.90;;;;;;5061530;28;20068;-64
2023/03/27 07:54:20;;;;;;;9.85;2.35;;;5.30;68.20;;;;;;5054902;28;20475;-63
2023/03/27 07:56:46;;;;;;;10.38;2.53;;;5.30;68.10;;;;;;5060443;28;20029;-63
2023/03/27 07:59:15;;;;;;;12.80;2.45;;;5.30;67.50;;;;;;5058652;28;20146;-66
2023/03/27 08:01:41;;;;;;;8.25;3.00;;;5.30;67.20;;;;;;5055551;28;20504;-64
2023/03/27 08:04:07;;;;;;;13.40;3.08;;;5.30;67.00;;;;;;5058733;28;20021;-63
2023/03/27 08:06:33;;;;;;;9.15;2.45;;;5.30;67.10;;;;;;5060582;28;20480;-64
2023/03/27 08:08:59;;;;;;;13.32;2.65;;;5.30;67.10;;;;;;5058755;28;20025;-64
2023/03/27 08:11:24;;;;;;;14.23;2.75;;;5.30;67.30;;;;;;5056355;28;20036;-64
2023/03/27 08:13:50;;;;;;;10.80;2.78;;;5.30;67.40;;;;;;5058413;28;20477;-62
2023/03/27 08:16:17;;;;;;;6.32;2.40;;;5.30;67.40;;;;;;5055084;28;20086;-63
2023/03/27 08:18:45;;;;;;;11.45;2.95;;;5.30;66.70;;;;;;5058929;28;20108;-64
2023/03/27 08:21:11;;;;;;;10.32;2.42;;;5.30;66.60;;;;;;5067610;28;20096;-64
2023/03/27 08:23:38;;;;;;;10.85;2.33;;;5.30;66.80;;;;;;5060157;28;20100;-64
2023/03/27 08:26:04;;;;;;;9.65;2.40;;;5.30;67.00;;;;;;5058312;28;20031;-64
2023/03/27 08:28:34;;;;;;;7.32;2.03;;;5.30;67.20;;;;;;5057609;28;20059;-63
2023/03/27 08:31:07;;;;;;;12.15;2.55;;;5.30;67.20;;;;;;5058200;28;20044;-64
2023/03/27 08:33:33;;;;;;;8.20;2.33;;;5.40;66.90;;;;;;5062867;28;20028;-63
2023/03/27 08:35:59;;;;;;;13.07;2.22;;;5.50;67.00;;;;;;5065363;28;20036;-64
2023/03/27 08:38:27;;;;;;;9.35;2.13;;;5.50;67.30;;;;;;5062410;28;20067;-64
2023/03/27 08:40:57;;;;;;;8.02;2.25;;;5.60;67.40;;;;;;5058577;28;20059;-63
2023/03/27 08:43:29;;;;;;;8.13;2.50;;;5.70;67.00;;;;;;5058631;28;20443;-64
2023/03/27 08:46:21;;;;;;;6.95;2.25;;;5.70;66.70;;;;;;5061040;28;20505;-65
2023/03/27 08:48:55;;;;;;;12.35;2.08;;;5.80;66.80;;;;;;5063588;28;20477;-64
2023/03/27 08:51:32;;;;;;;10.95;2.60;;;5.90;66.40;;;;;;5057236;28;20064;-63
2023/03/27 08:54:06;;;;;;;11.18;2.40;;;6.00;65.70;;;;;;5058911;28;20035;-65
2023/03/27 08:56:33;;;;;;;8.50;2.47;;;6.00;65.70;;;;;;5060916;28;21005;-63
2023/03/27 08:59:00;;;;;;;9.60;3.00;;;6.10;65.40;;;;;;5059330;28;20029;-64
2023/03/27 09:02:00;;;;;;;12.70;3.25;;;6.10;65.30;;;;;;5052654;28;20021;-64
2023/03/27 09:04:47;;;;;;;8.02;2.38;;;6.10;65.10;;;;;;5049462;28;20127;-65
2023/03/27 09:07:38;;;;;;;7.05;2.20;;;6.10;65.20;;;;;;5059309;28;20115;-64
2023/03/27 09:10:16;;;;;;;13.20;2.55;;;6.20;65.30;;;;;;5044135;28;20037;-65
2023/03/27 09:13:00;;;;;;;10.15;2.50;;;6.20;65.00;;;;;;5056203;28;20032;-64
2023/03/27 09:15:30;;;;;;;10.90;2.58;;;6.30;64.90;;;;;;5059952;28;20020;-64
2023/03/27 09:18:10;;;;;;;12.55;3.20;;;6.30;65.20;;;;;;5057592;28;20045;-64
2023/03/27 09:20:41;;;;;;;9.27;2.38;;;6.40;63.70;;;;;;5054466;28;20021;-64
2023/03/27 09:23:22;;;;;;;11.77;2.08;;;6.50;62.20;;;;;;5058289;28;20037;-65
2023/03/27 09:25:55;;;;;;;6.10;1.70;;;6.50;62.90;;;;;;5056299;28;20059;-64
2023/03/27 09:28:44;;;;;;;4.45;1.52;;;6.60;63.30;;;;;;5057648;28;20021;-64
2023/03/27 09:31:23;;;;;;;5.85;1.77;;;6.80;63.80;;;;;;5039855;28;20413;-64
2023/03/27 09:33:49;;;;;;;8.90;1.83;;;6.90;63.00;;;;;;5056553;28;20048;-64
2023/03/27 09:36:16;;;;;;;10.55;2.30;;;7.10;63.40;;;;;;5056950;28;20025;-65
2023/03/27 09:38:45;;;;;;;5.45;2.08;;;7.20;62.20;;;;;;5056615;28;20081;-65
2023/03/27 09:41:15;;;;;;;7.57;1.90;;;7.30;61.90;;;;;;5057246;28;20032;-65
2023/03/27 09:43:44;;;;;;;11.05;2.22;;;7.30;60.90;;;;;;5058533;28;20044;-64
2023/03/27 09:46:16;;;;;;;6.47;2.00;;;7.40;61.40;;;;;;5056027;28;20027;-64
2023/03/27 09:48:52;;;;;;;7.30;2.00;;;7.50;61.30;;;;;;5056054;28;20045;-64
2023/03/27 09:51:42;;;;;;;9.02;2.50;;;7.50;60.30;;;;;;5057172;28;20036;-64
2023/03/27 09:54:13;;;;;;;11.75;2.08;;;7.60;59.00;;;;;;5056712;28;20055;-63
2023/03/27 09:56:45;;;;;;;7.38;1.50;;;7.60;59.10;;;;;;5055826;28;20229;-64
2023/03/27 09:59:23;;;;;;;9.55;1.80;;;7.60;59.30;;;;;;5049775;28;20036;-63
2023/03/27 10:01:56;;;;;;;5.95;1.90;;;7.70;59.20;;;;;;5051592;28;20111;-63
2023/03/27 10:04:23;;;;;;;8.82;1.70;;;7.80;59.10;;;;;;5053383;28;20035;-63
2023/03/27 10:07:21;;;;;;;6.55;1.55;;;7.90;58.90;;;;;;5051657;28;20033;-64
2023/03/27 10:10:10;;;;;;;10.18;1.65;;;8.00;59.10;;;;;;5052185;28;20108;-64
2023/03/27 10:12:39;;;;;;;10.30;1.90;;;8.20;58.90;;;;;;5052055;28;20033;-64
2023/03/27 10:15:23;;;;;;;9.57;2.05;;;8.40;58.90;;;;;;5056023;28;20025;-63
2023/03/27 10:17:49;;;;;;;15.68;2.20;;;8.50;58.50;;;;;;5049564;28;20577;-64
2023/03/27 10:20:17;;;;;;;8.45;1.63;;;8.60;58.90;;;;;;5058519;28;20055;-64
2023/03/27 10:23:07;;;;;;;9.55;1.50;;;8.70;58.20;;;;;;5061706;28;20024;-64
2023/03/27 10:25:38;;;;;;;7.07;1.75;;;8.80;57.40;;;;;;5047425;28;20036;-64
2023/03/27 10:28:25;;;;;;;9.45;2.22;;;8.80;56.70;;;;;;5058040;28;20027;-64
2023/03/27 10:31:09;;;;;;;9.13;2.10;;;8.80;56.70;;;;;;5054785;28;20033;-65
2023/03/27 10:33:38;;;;;;;5.07;1.35;;;8.80;56.50;;;;;;5057227;28;20094;-64
2023/03/27 10:36:07;;;;;;;3.40;1.40;;;8.90;57.00;;;;;;5056256;28;20048;-64
2023/03/27 10:38:36;;;;;;;5.70;1.40;;;8.90;57.10;;;;;;5057390;28;20025;-64
2023/03/27 10:41:12;;;;;;;3.90;1.10;;;9.10;57.20;;;;;;5053327;28;20020;-65
2023/03/27 10:43:43;;;;;;;9.15;1.75;;;9.20;56.50;;;;;;5053738;28;20028;-64
2023/03/27 10:46:21;;;;;;;7.20;1.52;;;9.30;56.00;;;;;;5060919;28;20032;-64
2023/03/27 10:49:07;;;;;;;3.22;1.25;;;9.40;56.10;;;;;;5061363;28;20495;-64
2023/03/27 10:51:56;;;;;;;6.00;1.42;;;9.50;54.00;;;;;;5058339;28;20056;-63
2023/03/27 10:54:43;;;;;;;6.20;1.60;;;9.60;55.20;;;;;;5061399;28;20039;-64
2023/03/27 10:57:29;;;;;;;6.07;1.45;;;9.70;52.90;;;;;;5055057;28;20417;-65
2023/03/27 11:00:17;;;;;;;4.75;1.08;;;9.70;50.90;;;;;;5063831;28;20029;-65
2023/03/27 11:02:57;;;;;;;5.07;1.02;;;9.80;52.90;;;;;;5058872;28;20044;-64
2023/03/27 11:05:27;;;;;;;10.00;1.70;;;9.80;52.30;;;;;;5064584;28;20104;-64
2023/03/27 11:08:06;;;;;;;3.83;1.23;;;9.90;52.20;;;;;;5061509;28;20025;-65
2023/03/27 11:10:45;;;;;;;4.88;1.13;;;9.90;51.70;;;;;;5055831;28;20028;-65
2023/03/27 11:13:29;;;;;;;3.22;1.20;;;9.80;52.40;;;;;;5047613;28;20032;-64
2023/03/27 11:16:14;;;;;;;6.18;1.35;;;9.70;52.10;;;;;;5055506;28;20045;-65
2023/03/27 11:19:12;;;;;;;8.43;1.38;;;9.50;52.10;;;;;;5054490;28;20041;-65
2023/03/27 11:21:46;;;;;;;7.70;1.70;;;9.30;52.20;;;;;;5059139;28;20033;-65
2023/03/27 11:24:21;;;;;;;3.67;1.05;;;9.10;52.20;;;;;;5054756;28;20093;-65
2023/03/27 11:27:05;;;;;;;6.60;1.73;;;9.10;53.90;;;;;;5056404;28;20021;-65
2023/03/27 11:30:16;;;;;;;7.40;1.25;;;9.10;53.20;;;;;;5057629;28;20028;-65
2023/03/27 11:33:14;;;;;;;5.38;1.10;;;9.20;52.50;;;;;;5022669;28;20060;-65
2023/03/27 11:35:59;;;;;;;5.80;1.10;;;9.30;52.70;;;;;;5059284;28;20013;-64
2023/03/27 11:38:30;;;;;;;7.47;1.27;;;9.40;53.70;;;;;;5051578;28;20025;-64
2023/03/27 11:40:56;;;;;;;4.90;1.20;;;9.50;52.70;;;;;;5060306;28;20036;-64
2023/03/27 11:43:23;;;;;;;10.93;1.70;;;9.50;53.40;;;;;;5063188;28;20013;-64
2023/03/27 11:45:58;;;;;;;4.57;1.35;;;9.50;52.10;;;;;;5058953;28;20032;-63
2023/03/27 11:49:01;;;;;;;2.15;1.10;;;9.50;52.70;;;;;;5062202;28;20029;-64
2023/03/27 11:51:52;;;;;;;3.58;1.30;;;9.50;51.20;;;;;;5063857;28;20488;-64
2023/03/27 11:54:39;;;;;;;3.90;1.00;;;9.50;51.50;;;;;;5057833;28;20087;-65
2023/03/27 11:57:23;;;;;;;4.40;1.17;;;9.40;52.40;;;;;;5061540;28;20493;-65
2023/03/27 12:00:05;;;;;;;7.72;1.33;;;9.40;52.80;;;;;;5060936;28;20029;-65
2023/03/27 12:03:18;;;;;;;4.60;1.30;;;9.50;53.00;;;;;;5057440;28;20105;-65
2023/03/27 12:06:29;;;;;;;4.72;1.20;;;9.60;51.60;;;;;;5052580;28;20032;-65
2023/03/27 12:08:55;;;;;;;3.13;0.95;;;9.70;50.70;;;;;;4986667;28;20047;-64
2023/03/27 12:11:22;;;;;;;5.15;1.20;;;9.70;52.10;;;;;;4974211;28;20053;-64
2023/03/27 12:14:02;;;;;;;7.75;1.80;;;9.70;52.10;;;;;;4975850;28;20094;-65
2023/03/27 12:16:49;;;;;;;5.53;1.08;;;9.80;51.20;;;;;;4981575;28;20030;-64
2023/03/27 12:19:42;;;;;;;5.18;1.13;;;9.70;49.20;;;;;;4983463;28;20058;-64
2023/03/27 12:22:16;;;;;;;5.38;1.45;;;9.70;49.20;;;;;;4980990;28;20031;-64
2023/03/27 12:25:15;;;;;;;3.75;1.50;;;9.70;49.90;;;;;;4972430;28;20160;-64
2023/03/27 12:27:52;;;;;;;5.00;1.60;;;9.70;51.40;;;;;;4977728;28;20030;-64
2023/03/27 12:30:36;;;;;;;7.50;1.80;;;9.80;52.40;;;;;;4979580;28;20034;-64
2023/03/27 12:33:01;;;;;;;5.60;1.70;;;9.90;53.00;;;;;;4961803;28;20173;-64
2023/03/27 12:35:36;;;;;;;8.02;1.65;;;10.00;52.50;;;;;;4971140;28;20019;-64
2023/03/27 12:38:06;;;;;;;7.38;1.33;;;10.00;51.40;;;;;;4978117;28;20035;-65
2023/03/27 12:40:38;;;;;;;3.40;1.00;;;10.00;50.50;;;;;;4977572;28;20027;-64
2023/03/27 12:43:28;;;;;;;1.80;0.90;;;9.70;51.20;;;;;;4976507;28;20501;-64
2023/03/27 12:46:19;;;;;;;3.20;0.60;;;9.50;51.60;;;;;;5044875;28;20037;-65
2023/03/27 12:48:55;;;;;;;3.13;0.80;;;9.20;52.40;;;;;;5054914;28;20029;-64
2023/03/27 12:51:50;;;;;;;3.05;0.80;;;9.00;53.40;;;;;;5059679;28;20503;-65
2023/03/27 12:54:28;;;;;;;2.25;0.70;;;8.90;54.50;;;;;;5053498;28;20069;-64
2023/03/27 12:57:07;;;;;;;3.38;0.98;;;8.80;55.00;;;;;;5055544;28;20030;-65
2023/03/27 12:59:37;;;;;;;2.03;0.90;;;8.80;55.00;;;;;;5056409;28;20021;-64
2023/03/27 13:02:03;;;;;;;3.13;0.98;;;8.90;54.90;;;;;;5057745;28;20023;-65
2023/03/27 13:04:47;;;;;;;3.72;0.90;;;8.90;54.90;;;;;;5056646;28;20112;-65
2023/03/27 13:07:34;;;;;;;6.87;1.07;;;8.90;55.00;;;;;;5054725;28;20653;-64
2023/03/27 13:10:15;;;;;;;5.28;1.60;;;8.90;54.80;;;;;;5059122;28;20481;-65
2023/03/27 13:12:47;;;;;;;3.72;1.08;;;8.80;54.50;;;;;;5054500;28;20452;-65
2023/03/27 13:15:31;;;;;;;2.83;0.98;;;8.70;54.40;;;;;;5057017;28;20396;-64
2023/03/27 13:18:21;;;;;;;3.97;1.50;;;8.60;54.50;;;;;;5068330;28;20056;-65
2023/03/27 13:20:55;;;;;;;2.90;1.30;;;8.40;54.90;;;;;;5058157;28;20021;-65
2023/03/27 13:23:46;;;;;;;7.72;1.33;;;8.30;55.50;;;;;;5053478;28;20021;-65
2023/03/27 13:26:23;;;;;;;3.30;1.10;;;8.20;57.10;;;;;;5062864;28;20021;-64